createdAt,value
2023-01-13T00:00:15.607Z,75.55
2023-01-13T00:01:47.311Z,74.46
2023-01-13T00:03:19.032Z,75.96
2023-01-13T00:04:50.764Z,75.40
2023-01-13T00:06:25.833Z,75.77
2023-01-13T00:07:57.564Z,75.98
2023-01-13T00:09:29.285Z,75.34
2023-01-13T00:11:01.042Z,75.63
2023-01-13T00:12:34.191Z,76.09
2023-01-13T00:14:05.964Z,75.46
2023-01-13T00:15:37.690Z,75.32
2023-01-13T00:17:09.426Z,74.57
2023-01-13T00:18:41.159Z,73.89
2023-01-13T00:20:12.879Z,75.09
2023-01-13T00:21:44.587Z,76.33
2023-01-13T00:23:16.314Z,75.87
2023-01-13T00:24:48.047Z,75.72
2023-01-13T00:26:20.737Z,76.03
2023-01-13T00:27:53.923Z,76.11
2023-01-13T00:29:25.683Z,75.54
2023-01-13T00:30:58.664Z,74.56
2023-01-13T00:32:30.459Z,77.11
2023-01-13T00:34:02.435Z,77.44
2023-01-13T00:35:34.167Z,76.72
2023-01-13T00:37:05.876Z,77.21
2023-01-13T00:38:38.992Z,77.55
2023-01-13T00:40:12.068Z,76.12
2023-01-13T00:42:02.610Z,74.50
2023-01-13T00:43:36.122Z,74.15
2023-01-13T00:45:08.418Z,71.01
2023-01-13T00:46:40.130Z,73.36
2023-01-13T00:48:11.907Z,74.65
2023-01-13T00:49:43.612Z,73.87
2023-01-13T00:51:17.073Z,72.55
2023-01-13T00:52:48.816Z,73.08
2023-01-13T00:54:20.531Z,74.22
2023-01-13T00:55:59.065Z,74.65
2023-01-13T00:57:30.789Z,73.95
2023-01-13T00:59:04.227Z,74.01
2023-01-13T01:00:36.226Z,72.71
2023-01-13T01:02:08.067Z,73.25
2023-01-13T01:03:39.935Z,73.90
2023-01-13T01:05:11.647Z,74.12
2023-01-13T01:06:43.363Z,73.41
2023-01-13T01:08:15.084Z,73.44
2023-01-13T01:09:46.783Z,74.51
2023-01-13T01:11:19.386Z,74.64
2023-01-13T01:12:51.135Z,74.12
2023-01-13T01:14:24.236Z,75.46
2023-01-13T01:15:56.335Z,75.50
2023-01-13T01:17:28.240Z,75.64
2023-01-13T01:19:00.225Z,74.89
2023-01-13T01:20:31.915Z,75.28
2023-01-13T01:22:03.671Z,72.53
2023-01-13T01:23:35.659Z,73.37
2023-01-13T01:25:08.446Z,72.86
2023-01-13T01:26:41.998Z,73.02
2023-01-13T01:28:13.767Z,74.14
2023-01-13T01:29:46.839Z,73.50
2023-01-13T01:31:19.546Z,74.25
2023-01-13T01:32:51.276Z,73.92
2023-01-13T01:34:23.004Z,73.50
2023-01-13T01:35:54.896Z,75.31
2023-01-13T01:37:26.586Z,72.93
2023-01-13T01:38:58.687Z,73.60
2023-01-13T01:40:30.425Z,74.22
2023-01-13T01:42:20.531Z,75.49
2023-01-13T01:44:08.264Z,76.68
2023-01-13T01:45:41.419Z,77.11
2023-01-13T01:47:14.080Z,77.37
2023-01-13T01:48:45.795Z,76.75
2023-01-13T01:50:17.679Z,77.23
2023-01-13T01:51:52.375Z,76.39
2023-01-13T01:53:25.168Z,74.43
2023-01-13T01:54:58.722Z,75.68
2023-01-13T01:56:30.575Z,74.34
2023-01-13T01:58:04.701Z,73.76
2023-01-13T01:59:36.443Z,73.77
2023-01-13T02:01:09.711Z,71.47
2023-01-13T02:02:41.772Z,71.58
2023-01-13T02:04:15.389Z,72.70
2023-01-13T02:05:47.072Z,72.62
2023-01-13T02:07:18.947Z,72.20
2023-01-13T02:08:50.640Z,73.29
2023-01-13T02:10:23.579Z,73.44
2023-01-13T02:12:13.853Z,73.10
2023-01-13T02:13:45.543Z,73.44
2023-01-13T02:15:18.468Z,74.20
2023-01-13T02:16:56.009Z,73.98
2023-01-13T02:18:36.586Z,73.37
2023-01-13T02:20:29.229Z,70.26
2023-01-13T02:22:11.669Z,70.76
2023-01-13T02:24:36.949Z,71.69
2023-01-13T02:26:19.759Z,72.26
2023-01-13T02:28:00.605Z,71.41
2023-01-13T02:30:01.809Z,71.13
2023-01-13T02:31:42.523Z,73.24
2023-01-13T02:33:20.066Z,72.33
2023-01-13T02:34:55.146Z,73.27
2023-01-13T02:36:31.104Z,73.28
2023-01-13T02:38:02.817Z,73.12
2023-01-13T02:39:36.031Z,73.53
2023-01-13T02:41:27.762Z,73.28
2023-01-13T02:43:20.225Z,74.32
2023-01-13T02:44:55.498Z,74.42
2023-01-13T02:46:28.414Z,74.95
2023-01-13T02:48:00.145Z,74.15
2023-01-13T02:49:34.437Z,73.07
2023-01-13T02:51:07.538Z,72.55
2023-01-13T02:52:40.931Z,73.37
2023-01-13T02:54:13.897Z,71.24
2023-01-13T02:55:46.970Z,71.61
2023-01-13T02:57:18.707Z,73.44
2023-01-13T02:58:50.404Z,72.12
2023-01-13T03:00:23.594Z,73.16
2023-01-13T03:01:56.212Z,72.93
2023-01-13T03:03:27.930Z,69.87
2023-01-13T03:05:00.005Z,71.13
2023-01-13T03:06:36.928Z,70.56
2023-01-13T03:08:18.928Z,69.35
2023-01-13T03:09:53.947Z,70.70
2023-01-13T03:11:27.098Z,71.69
2023-01-13T03:13:02.577Z,71.63
2023-01-13T03:14:36.124Z,69.94
2023-01-13T03:16:13.153Z,72.22
2023-01-13T03:17:46.623Z,71.75
2023-01-13T03:19:25.339Z,72.43
2023-01-13T03:21:01.374Z,72.12
2023-01-13T03:22:34.284Z,70.70
2023-01-13T03:24:07.429Z,71.28
2023-01-13T03:25:40.641Z,72.50
2023-01-13T03:27:14.620Z,72.81
2023-01-13T03:28:48.428Z,71.50
2023-01-13T03:30:20.929Z,72.70
2023-01-13T03:31:56.492Z,71.42
2023-01-13T03:33:29.457Z,72.01
2023-01-13T03:35:04.294Z,73.17
2023-01-13T03:36:36.231Z,71.72
2023-01-13T03:38:10.222Z,71.15
2023-01-13T03:39:43.917Z,71.91
2023-01-13T03:41:17.496Z,71.24
2023-01-13T03:43:09.496Z,71.03
2023-01-13T03:44:42.276Z,71.42
2023-01-13T03:46:15.172Z,70.84
2023-01-13T03:47:49.467Z,72.16
2023-01-13T03:49:22.961Z,72.73
2023-01-13T03:50:56.374Z,72.09
2023-01-13T03:52:29.124Z,72.14
2023-01-13T03:54:01.900Z,72.33
2023-01-13T03:55:34.554Z,72.30
2023-01-13T03:57:07.782Z,72.32
2023-01-13T03:58:41.333Z,72.84
2023-01-13T04:00:13.517Z,73.36
2023-01-13T04:01:47.153Z,72.66
2023-01-13T04:03:23.439Z,72.70
2023-01-13T04:04:56.521Z,72.08
2023-01-13T04:06:31.784Z,73.42
2023-01-13T04:08:07.048Z,73.94
2023-01-13T04:09:41.654Z,74.00
2023-01-13T04:11:15.839Z,74.29
2023-01-13T04:13:01.479Z,75.31
2023-01-13T04:14:33.108Z,74.42
2023-01-13T04:16:05.662Z,74.98
2023-01-13T04:17:37.289Z,75.94
2023-01-13T04:19:10.270Z,75.48
2023-01-13T04:20:42.294Z,74.74
2023-01-13T04:22:13.979Z,75.83
2023-01-13T04:23:45.829Z,75.56
2023-01-13T04:25:17.404Z,76.30
2023-01-13T04:26:48.943Z,77.09
2023-01-13T04:28:20.561Z,76.99
2023-01-13T04:29:52.232Z,76.22
2023-01-13T04:31:23.950Z,77.10
2023-01-13T04:32:55.543Z,77.65
2023-01-13T04:34:28.606Z,78.15
2023-01-13T04:36:00.217Z,77.61
2023-01-13T04:37:31.799Z,77.97
2023-01-13T04:39:03.764Z,77.66
2023-01-13T04:40:35.420Z,77.61
2023-01-13T04:42:07.015Z,77.49
2023-01-13T04:43:38.594Z,77.75
2023-01-13T04:45:10.901Z,78.13
2023-01-13T04:46:42.568Z,78.37
2023-01-13T04:48:14.197Z,77.59
2023-01-13T04:49:47.128Z,77.86
2023-01-13T04:51:18.688Z,78.40
2023-01-13T04:52:50.413Z,78.63
2023-01-13T04:54:22.058Z,78.40
2023-01-13T04:55:53.680Z,78.54
2023-01-13T04:57:25.978Z,78.28
2023-01-13T04:58:57.564Z,78.93
2023-01-13T05:00:29.130Z,78.80
2023-01-13T05:02:00.789Z,78.40
2023-01-13T05:03:32.443Z,78.33
2023-01-13T05:05:05.939Z,78.53
2023-01-13T05:06:37.552Z,78.87
2023-01-13T05:08:09.179Z,78.90
2023-01-13T05:09:40.777Z,78.87
2023-01-13T05:11:31.096Z,78.75
2023-01-13T05:13:21.391Z,78.60
2023-01-13T05:15:11.877Z,79.08
2023-01-13T05:17:01.748Z,78.17
2023-01-13T05:18:33.366Z,78.19
2023-01-13T05:20:07.221Z,78.91
2023-01-13T05:22:07.943Z,78.74
2023-01-13T05:23:57.737Z,78.90
2023-01-13T05:25:29.292Z,78.96
2023-01-13T05:27:00.860Z,79.37
2023-01-13T05:28:32.488Z,79.17
2023-01-13T05:30:04.881Z,78.81
2023-01-13T05:31:36.451Z,79.05
2023-01-13T05:33:08.176Z,79.31
2023-01-13T05:34:39.790Z,79.57
2023-01-13T05:36:12.780Z,79.49
2023-01-13T05:37:44.668Z,79.32
2023-01-13T05:39:16.248Z,79.66
2023-01-13T05:41:06.627Z,78.99
2023-01-13T05:42:56.868Z,79.60
2023-01-13T05:44:28.682Z,79.30
2023-01-13T05:46:01.285Z,79.02
2023-01-13T05:47:32.926Z,79.67
2023-01-13T05:49:05.400Z,79.31
2023-01-13T05:50:36.964Z,79.76
2023-01-13T05:52:09.919Z,79.25
2023-01-13T05:53:41.523Z,79.67
2023-01-13T05:55:13.094Z,79.60
2023-01-13T05:56:44.653Z,79.38
2023-01-13T05:58:16.761Z,79.74
2023-01-13T05:59:48.409Z,79.70
2023-01-13T06:01:20.102Z,80.18
2023-01-13T06:02:51.790Z,79.02
2023-01-13T06:04:23.434Z,79.74
2023-01-13T06:05:59.183Z,79.98
2023-01-13T06:07:32.132Z,79.95
2023-01-13T06:09:03.845Z,80.63
2023-01-13T06:10:35.776Z,80.75
2023-01-13T06:12:07.540Z,81.18
2023-01-13T06:13:39.146Z,80.89
2023-01-13T06:15:11.269Z,81.29
2023-01-13T06:16:42.933Z,81.03
2023-01-13T06:18:14.541Z,81.11
2023-01-13T06:19:46.212Z,81.81
2023-01-13T06:21:17.799Z,81.77
2023-01-13T06:22:51.837Z,82.23
2023-01-13T06:24:23.413Z,82.29
2023-01-13T06:25:59.703Z,82.48
2023-01-13T06:27:31.368Z,82.94
2023-01-13T06:29:02.972Z,82.92
2023-01-13T06:30:36.822Z,82.67
2023-01-13T06:32:11.576Z,82.73
2023-01-13T06:33:43.930Z,82.34
2023-01-13T06:35:16.945Z,83.01
2023-01-13T06:36:49.707Z,83.35
2023-01-13T06:38:22.911Z,82.73
2023-01-13T06:39:56.877Z,82.75
2023-01-13T06:41:47.241Z,82.75
2023-01-13T06:43:18.814Z,82.78
2023-01-13T06:44:50.611Z,82.03
2023-01-13T06:46:22.277Z,81.92
2023-01-13T06:47:54.654Z,82.12
2023-01-13T06:49:26.263Z,82.32
2023-01-13T06:50:57.839Z,82.51
2023-01-13T06:52:30.518Z,82.68
2023-01-13T06:54:03.799Z,82.95
2023-01-13T06:55:35.524Z,82.75
2023-01-13T06:57:07.116Z,82.52
2023-01-13T06:58:38.728Z,82.66
2023-01-13T07:00:11.786Z,82.73
2023-01-13T07:01:43.618Z,82.84
2023-01-13T07:03:15.940Z,82.80
2023-01-13T07:04:47.593Z,83.07
2023-01-13T07:06:19.206Z,83.60
2023-01-13T07:07:50.806Z,83.57
2023-01-13T07:09:23.755Z,83.40
2023-01-13T07:10:55.355Z,83.51
2023-01-13T07:12:26.917Z,83.43
2023-01-13T07:14:17.274Z,83.26
2023-01-13T07:15:55.951Z,83.33
2023-01-13T07:17:27.557Z,83.31
2023-01-13T07:18:59.144Z,83.03
2023-01-13T07:20:30.732Z,83.33
2023-01-13T07:22:02.333Z,83.50
2023-01-13T07:23:35.739Z,83.33
2023-01-13T07:25:10.039Z,83.35
2023-01-13T07:26:41.626Z,83.34
2023-01-13T07:28:13.185Z,83.07
2023-01-13T07:29:44.759Z,83.10
2023-01-13T07:31:17.420Z,82.63
2023-01-13T07:32:49.019Z,82.32
2023-01-13T07:34:20.675Z,82.67
2023-01-13T07:35:56.333Z,82.57
2023-01-13T07:37:27.895Z,82.67
2023-01-13T07:38:59.651Z,83.15
2023-01-13T07:40:32.599Z,82.92
2023-01-13T07:42:22.783Z,83.26
2023-01-13T07:43:54.372Z,82.94
2023-01-13T07:45:26.411Z,83.13
2023-01-13T07:46:58.039Z,83.29
2023-01-13T07:48:30.196Z,83.26
2023-01-13T07:50:01.838Z,83.11
2023-01-13T07:51:35.652Z,82.79
2023-01-13T07:53:07.211Z,83.07
2023-01-13T07:54:41.144Z,83.02
2023-01-13T07:56:14.269Z,83.17
2023-01-13T07:57:45.932Z,82.57
2023-01-13T07:59:17.501Z,82.73
2023-01-13T08:00:49.109Z,82.46
2023-01-13T08:02:21.601Z,82.56
2023-01-13T08:03:53.293Z,82.45
2023-01-13T08:05:24.932Z,81.99
2023-01-13T08:06:56.560Z,82.32
2023-01-13T08:08:28.180Z,82.01
2023-01-13T08:09:59.782Z,81.64
2023-01-13T08:11:32.741Z,82.11
2023-01-13T08:13:18.280Z,82.05
2023-01-13T08:14:50.907Z,81.85
2023-01-13T08:16:23.669Z,82.02
2023-01-13T08:17:55.471Z,82.10
2023-01-13T08:19:27.120Z,82.14
2023-01-13T08:21:01.530Z,82.46
2023-01-13T08:22:33.283Z,82.93
2023-01-13T08:24:05.323Z,83.09
2023-01-13T08:25:37.013Z,82.36
2023-01-13T08:27:10.085Z,82.25
2023-01-13T08:28:41.859Z,82.45
2023-01-13T08:30:14.219Z,82.19
2023-01-13T08:31:45.956Z,82.90
2023-01-13T08:33:17.726Z,82.72
2023-01-13T08:34:49.371Z,82.48
2023-01-13T08:36:21.050Z,82.76
2023-01-13T08:37:52.959Z,82.28
2023-01-13T08:39:25.283Z,82.08
2023-01-13T08:40:57.228Z,82.47
2023-01-13T08:42:31.039Z,82.94
2023-01-13T08:44:03.309Z,82.73
2023-01-13T08:45:36.139Z,82.52
2023-01-13T08:47:07.972Z,82.04
2023-01-13T08:48:39.866Z,81.82
2023-01-13T08:50:14.051Z,81.58
2023-01-13T08:51:48.529Z,82.24
2023-01-13T08:53:20.643Z,82.28
2023-01-13T08:54:52.585Z,81.87
2023-01-13T08:56:24.661Z,82.38
2023-01-13T08:58:14.003Z,82.03
2023-01-13T08:59:46.684Z,81.85
2023-01-13T09:01:21.579Z,81.69
2023-01-13T09:02:53.454Z,81.68
2023-01-13T09:04:26.163Z,82.85
2023-01-13T09:05:57.900Z,82.58
2023-01-13T09:07:29.795Z,82.20
2023-01-13T09:09:02.583Z,82.34
2023-01-13T09:10:35.677Z,82.40
2023-01-13T09:12:25.925Z,82.34
2023-01-13T09:13:59.050Z,82.39
2023-01-13T09:15:30.869Z,81.99
2023-01-13T09:17:03.070Z,82.63
2023-01-13T09:18:37.735Z,82.11
2023-01-13T09:20:11.097Z,82.08
2023-01-13T09:21:42.735Z,82.28
2023-01-13T09:23:14.392Z,82.01
2023-01-13T09:24:46.087Z,82.29
2023-01-13T09:26:19.869Z,82.01
2023-01-13T09:27:51.554Z,82.15
2023-01-13T09:29:24.691Z,81.75
2023-01-13T09:31:00.818Z,82.03
2023-01-13T09:32:32.905Z,81.96
2023-01-13T09:34:24.330Z,81.83
2023-01-13T09:35:59.392Z,81.86
2023-01-13T09:37:31.893Z,81.61
2023-01-13T09:39:03.735Z,81.96
2023-01-13T09:40:35.788Z,81.79
2023-01-13T09:42:32.672Z,81.43
2023-01-13T09:44:04.540Z,81.25
2023-01-13T09:45:42.141Z,81.02
2023-01-13T09:47:17.826Z,81.05
2023-01-13T09:48:52.397Z,80.57
2023-01-13T09:50:37.490Z,80.48
2023-01-13T09:52:12.225Z,79.66
2023-01-13T09:53:45.657Z,80.33
2023-01-13T09:55:18.263Z,79.98
2023-01-13T09:56:49.871Z,80.42
2023-01-13T09:58:21.588Z,80.62
2023-01-13T09:59:53.321Z,80.52
2023-01-13T10:01:28.074Z,80.67
2023-01-13T10:03:09.753Z,80.57
2023-01-13T10:04:41.512Z,79.99
2023-01-13T10:06:15.114Z,80.01
2023-01-13T10:07:49.618Z,80.21
2023-01-13T10:09:22.545Z,80.36
2023-01-13T10:10:55.682Z,79.78
2023-01-13T10:12:46.001Z,79.84
2023-01-13T10:14:18.759Z,79.47
2023-01-13T10:16:16.203Z,79.52
2023-01-13T10:17:50.806Z,79.54
2023-01-13T10:19:24.574Z,79.61
2023-01-13T10:20:59.486Z,79.42
2023-01-13T10:22:42.009Z,78.65
2023-01-13T10:24:16.475Z,78.91
2023-01-13T10:25:53.105Z,78.66
2023-01-13T10:27:26.239Z,79.46
2023-01-13T10:28:58.055Z,78.63
2023-01-13T10:30:34.675Z,78.56
2023-01-13T10:32:06.339Z,79.41
2023-01-13T10:33:39.302Z,78.49
2023-01-13T10:35:10.953Z,77.98
2023-01-13T10:36:49.137Z,78.29
2023-01-13T10:38:22.010Z,77.12
2023-01-13T10:39:55.074Z,77.53
2023-01-13T10:41:27.429Z,78.10
2023-01-13T10:43:06.337Z,78.63
2023-01-13T10:44:49.124Z,78.94
2023-01-13T10:46:20.839Z,79.58
2023-01-13T10:48:05.157Z,79.60
2023-01-13T10:49:38.764Z,79.94
2023-01-13T10:51:12.222Z,80.78
2023-01-13T10:52:56.493Z,80.56
2023-01-13T10:54:28.153Z,80.96
2023-01-13T10:56:00.574Z,80.83
2023-01-13T10:57:35.764Z,81.58
2023-01-13T10:59:18.459Z,80.96
2023-01-13T11:00:50.293Z,81.62
2023-01-13T11:02:26.934Z,81.85
2023-01-13T11:03:58.892Z,82.15
2023-01-13T11:05:31.823Z,82.53
2023-01-13T11:07:03.634Z,82.92
2023-01-13T11:08:42.122Z,82.73
2023-01-13T11:10:18.334Z,81.16
2023-01-13T11:11:55.434Z,80.90
2023-01-13T11:13:30.664Z,81.78
2023-01-13T11:15:04.445Z,81.72
2023-01-13T11:16:36.008Z,81.84
2023-01-13T11:18:13.552Z,81.56
2023-01-13T11:19:48.809Z,81.54
2023-01-13T11:21:23.047Z,81.29
2023-01-13T11:22:57.457Z,81.53
2023-01-13T11:24:35.833Z,81.39
2023-01-13T11:26:10.692Z,81.23
2023-01-13T11:27:43.643Z,81.64
2023-01-13T11:29:17.574Z,82.65
2023-01-13T11:30:51.005Z,82.72
2023-01-13T11:32:23.415Z,82.86
2023-01-13T11:33:57.222Z,83.29
2023-01-13T11:35:28.959Z,82.32
2023-01-13T11:37:03.458Z,81.84
2023-01-13T11:38:40.568Z,82.12
2023-01-13T11:40:14.047Z,82.36
2023-01-13T11:42:07.802Z,82.87
2023-01-13T11:43:42.232Z,82.19
2023-01-13T11:45:17.516Z,82.30
2023-01-13T11:46:49.693Z,81.99
2023-01-13T11:48:22.611Z,81.67
2023-01-13T11:49:54.205Z,82.00
2023-01-13T11:51:32.443Z,81.35
2023-01-13T11:53:19.975Z,81.32
2023-01-13T11:55:10.269Z,81.59
2023-01-13T11:57:04.038Z,81.67
2023-01-13T11:58:51.041Z,81.70
2023-01-13T12:00:36.300Z,80.54
2023-01-13T12:02:16.253Z,78.95
2023-01-13T12:03:48.783Z,79.17
2023-01-13T12:05:26.036Z,79.31
2023-01-13T12:07:02.229Z,79.01
2023-01-13T12:08:59.304Z,77.86
2023-01-13T12:10:41.659Z,77.48
2023-01-13T12:12:23.001Z,77.24
2023-01-13T12:14:06.606Z,77.52
2023-01-13T12:16:02.717Z,77.66
2023-01-13T12:17:37.327Z,76.91
2023-01-13T12:19:25.604Z,77.27
2023-01-13T12:21:05.712Z,77.01
2023-01-13T12:22:37.278Z,77.22
2023-01-13T12:24:14.681Z,78.12
2023-01-13T12:25:47.904Z,77.56
2023-01-13T12:27:22.256Z,77.82
2023-01-13T12:28:56.044Z,78.44
2023-01-13T12:30:29.527Z,78.70
2023-01-13T12:32:02.305Z,78.91
2023-01-13T12:33:59.001Z,77.96
2023-01-13T12:35:36.188Z,78.57
2023-01-13T12:37:11.210Z,78.77
2023-01-13T12:38:45.761Z,79.15
2023-01-13T12:40:30.599Z,78.29
2023-01-13T12:42:25.491Z,78.78
2023-01-13T12:44:16.015Z,78.82
2023-01-13T12:45:47.580Z,78.98
2023-01-13T12:47:33.014Z,79.34
2023-01-13T12:49:09.696Z,79.51
2023-01-13T12:50:42.356Z,79.94
2023-01-13T12:52:18.427Z,79.63
2023-01-13T12:53:50.118Z,79.73
2023-01-13T12:55:23.185Z,80.13
2023-01-13T12:56:54.794Z,79.93
2023-01-13T12:58:26.701Z,79.44
2023-01-13T13:00:22.172Z,78.37
2023-01-13T13:02:25.005Z,77.86
2023-01-13T13:04:07.777Z,78.33
2023-01-13T13:05:43.377Z,77.95
2023-01-13T13:07:16.645Z,77.90
2023-01-13T13:08:58.402Z,78.00
2023-01-13T13:10:32.577Z,78.45
2023-01-13T13:12:56.689Z,78.34
2023-01-13T13:15:02.236Z,78.42
2023-01-13T13:16:50.637Z,79.37
2023-01-13T13:18:27.014Z,78.79
2023-01-13T13:19:59.561Z,79.18
2023-01-13T13:21:55.513Z,79.43
2023-01-13T13:23:28.593Z,79.16
2023-01-13T13:25:22.936Z,78.83
2023-01-13T13:26:55.875Z,76.16
2023-01-13T13:28:27.525Z,76.24
2023-01-13T13:29:59.292Z,76.39
2023-01-13T13:31:36.025Z,76.60
2023-01-13T13:33:25.197Z,76.98
2023-01-13T13:35:08.210Z,76.65
2023-01-13T13:36:48.413Z,76.75
2023-01-13T13:38:44.270Z,76.14
2023-01-13T13:40:34.499Z,77.01
2023-01-13T13:42:31.230Z,77.19
2023-01-13T13:44:21.734Z,77.81
2023-01-13T13:46:12.149Z,78.43
2023-01-13T13:47:43.743Z,76.72
2023-01-13T13:49:15.757Z,77.79
2023-01-13T13:50:48.061Z,77.62
2023-01-13T13:52:21.071Z,75.47
2023-01-13T13:53:52.708Z,75.13
2023-01-13T13:55:27.421Z,75.56
2023-01-13T13:56:59.348Z,75.09
2023-01-13T13:58:34.015Z,74.51
2023-01-13T14:00:07.765Z,75.21
2023-01-13T14:01:40.822Z,73.50
2023-01-13T14:03:21.556Z,72.91
2023-01-13T14:05:06.784Z,73.84
2023-01-13T14:06:38.455Z,71.44
2023-01-13T14:08:13.002Z,72.51
2023-01-13T14:09:45.442Z,73.96
2023-01-13T14:11:25.198Z,73.87
2023-01-13T14:13:00.778Z,72.94
2023-01-13T14:14:33.825Z,72.69
2023-01-13T14:16:11.456Z,73.10
2023-01-13T14:17:46.130Z,73.63
2023-01-13T14:19:29.519Z,73.56
2023-01-13T14:21:05.803Z,74.54
2023-01-13T14:22:37.429Z,75.24
2023-01-13T14:24:14.084Z,75.39
2023-01-13T14:25:47.064Z,75.88
2023-01-13T14:27:18.737Z,76.02
2023-01-13T14:28:50.352Z,75.13
2023-01-13T14:30:23.324Z,74.77
2023-01-13T14:31:54.923Z,74.94
2023-01-13T14:33:34.030Z,75.34
2023-01-13T14:35:06.118Z,74.45
2023-01-13T14:36:37.796Z,74.88
2023-01-13T14:38:15.793Z,75.32
2023-01-13T14:39:47.502Z,74.98
2023-01-13T14:41:23.722Z,75.64
2023-01-13T14:42:58.252Z,74.51
2023-01-13T14:44:31.683Z,74.12
2023-01-13T14:46:04.896Z,75.62
2023-01-13T14:47:36.784Z,75.73
2023-01-13T14:49:16.092Z,75.78
2023-01-13T14:50:47.665Z,75.84
2023-01-13T14:52:20.682Z,75.85
2023-01-13T14:53:52.272Z,75.78
2023-01-13T14:55:27.505Z,75.76
2023-01-13T14:57:10.684Z,76.27
2023-01-13T14:58:42.305Z,76.38
2023-01-13T15:00:23.527Z,75.66
2023-01-13T15:01:56.540Z,75.82
2023-01-13T15:03:42.214Z,75.64
2023-01-13T15:05:37.600Z,75.78
2023-01-13T15:07:12.124Z,74.83
2023-01-13T15:08:43.754Z,75.55
2023-01-13T15:10:15.844Z,76.20
2023-01-13T15:11:47.469Z,75.94
2023-01-13T15:13:24.200Z,75.69
2023-01-13T15:14:57.939Z,76.48
2023-01-13T15:16:33.353Z,76.10
2023-01-13T15:18:11.830Z,76.34
2023-01-13T15:19:43.565Z,76.67
2023-01-13T15:21:15.740Z,75.37
2023-01-13T15:22:47.409Z,75.87
2023-01-13T15:24:19.026Z,75.29
2023-01-13T15:25:50.723Z,75.56
2023-01-13T15:27:24.601Z,74.66
2023-01-13T15:28:57.141Z,75.63
2023-01-13T15:30:28.821Z,75.75
2023-01-13T15:32:00.417Z,74.85
2023-01-13T15:33:33.347Z,76.94
2023-01-13T15:35:06.123Z,78.26
2023-01-13T15:36:37.901Z,79.69
2023-01-13T15:38:10.303Z,84.06
2023-01-13T15:39:41.961Z,87.09
2023-01-13T15:41:13.981Z,86.56
2023-01-13T15:43:04.069Z,87.03
2023-01-13T15:44:54.423Z,86.83
2023-01-13T15:46:38.132Z,87.07
2023-01-13T15:48:09.909Z,87.44
2023-01-13T15:49:43.244Z,87.06
2023-01-13T15:51:14.891Z,86.97
2023-01-13T15:52:46.514Z,88.22
2023-01-13T15:54:19.967Z,88.44
2023-01-13T15:55:53.669Z,87.18
2023-01-13T15:57:27.248Z,88.20
2023-01-13T15:58:58.887Z,88.32
2023-01-13T16:00:30.522Z,88.69
2023-01-13T16:02:02.161Z,88.43
2023-01-13T16:03:33.738Z,87.94
2023-01-13T16:05:07.079Z,87.73
2023-01-13T16:06:38.670Z,88.48
2023-01-13T16:08:11.972Z,88.64
2023-01-13T16:09:43.619Z,88.27
2023-01-13T16:11:15.327Z,89.41
2023-01-13T16:12:46.907Z,89.09
2023-01-13T16:14:18.537Z,88.45
2023-01-13T16:15:50.233Z,89.27
2023-01-13T16:17:23.036Z,88.96
2023-01-13T16:18:54.671Z,89.18
2023-01-13T16:20:27.710Z,89.64
2023-01-13T16:21:59.812Z,89.79
2023-01-13T16:23:31.381Z,89.46
2023-01-13T16:25:02.990Z,89.37
2023-01-13T16:26:37.287Z,89.24
2023-01-13T16:28:12.183Z,88.94
2023-01-13T16:29:44.132Z,88.26
2023-01-13T16:31:17.669Z,89.15
2023-01-13T16:32:49.293Z,89.93
2023-01-13T16:34:20.856Z,88.67
2023-01-13T16:36:10.408Z,89.60
2023-01-13T16:37:47.061Z,89.46
2023-01-13T16:39:20.755Z,89.54
2023-01-13T16:40:52.363Z,89.46
2023-01-13T16:42:24.097Z,89.16
2023-01-13T16:43:55.699Z,89.25
2023-01-13T16:45:27.444Z,89.15
2023-01-13T16:46:59.138Z,89.19
2023-01-13T16:48:30.770Z,89.24
2023-01-13T16:50:02.612Z,90.08
2023-01-13T16:51:35.752Z,89.69
2023-01-13T16:53:09.243Z,90.07
2023-01-13T16:54:40.924Z,89.39
2023-01-13T16:56:23.098Z,89.55
2023-01-13T16:57:54.980Z,89.50
2023-01-13T16:59:26.630Z,89.32
2023-01-13T17:00:58.259Z,89.68
2023-01-13T17:02:29.888Z,89.93
2023-01-13T17:04:01.503Z,88.95
2023-01-13T17:05:33.275Z,88.88
2023-01-13T17:07:06.709Z,89.15
2023-01-13T17:08:38.284Z,88.96
2023-01-13T17:10:13.126Z,89.03
2023-01-13T17:11:44.699Z,89.18
2023-01-13T17:13:17.348Z,89.23
2023-01-13T17:14:49.094Z,89.25
2023-01-13T17:16:24.411Z,88.98
2023-01-13T17:17:57.159Z,89.33
2023-01-13T17:19:28.810Z,89.21
2023-01-13T17:21:01.405Z,89.51
2023-01-13T17:22:34.348Z,89.79
2023-01-13T17:24:07.873Z,89.64
2023-01-13T17:25:39.515Z,89.21
2023-01-13T17:27:11.128Z,89.37
2023-01-13T17:28:50.672Z,90.23
2023-01-13T17:30:23.372Z,90.38
2023-01-13T17:31:55.141Z,89.97
2023-01-13T17:33:26.755Z,89.79
2023-01-13T17:35:01.514Z,89.68
2023-01-13T17:36:33.092Z,89.51
2023-01-13T17:38:06.067Z,89.99
2023-01-13T17:39:37.618Z,90.42
2023-01-13T17:41:28.975Z,90.12
2023-01-13T17:43:00.629Z,89.94
2023-01-13T17:44:34.262Z,89.85
2023-01-13T17:46:08.072Z,89.66
2023-01-13T17:47:39.822Z,90.59
2023-01-13T17:49:11.438Z,90.38
2023-01-13T17:50:48.442Z,90.44
2023-01-13T17:52:20.283Z,90.53
2023-01-13T17:53:54.167Z,91.24
2023-01-13T17:55:25.793Z,91.11
2023-01-13T17:56:57.457Z,90.23
2023-01-13T17:58:29.068Z,91.29
2023-01-13T18:00:00.712Z,90.49
2023-01-13T18:01:33.234Z,90.67
2023-01-13T18:03:04.906Z,91.20
2023-01-13T18:04:36.644Z,90.54
2023-01-13T18:06:10.543Z,90.44
2023-01-13T18:07:42.139Z,89.98
2023-01-13T18:09:15.175Z,90.56
2023-01-13T18:10:47.416Z,90.97
2023-01-13T18:12:19.296Z,89.90
2023-01-13T18:13:55.307Z,89.86
2023-01-13T18:15:26.933Z,89.85
2023-01-13T18:16:58.672Z,89.93
2023-01-13T18:18:30.365Z,90.13
2023-01-13T18:20:21.105Z,90.43
2023-01-13T18:22:11.380Z,90.49
2023-01-13T18:24:01.741Z,90.00
2023-01-13T18:25:53.529Z,89.86
2023-01-13T18:27:27.654Z,90.06
2023-01-13T18:28:59.327Z,90.50
2023-01-13T18:30:30.959Z,90.40
2023-01-13T18:32:02.625Z,90.50
2023-01-13T18:33:34.234Z,90.07
2023-01-13T18:35:10.285Z,90.04
2023-01-13T18:36:42.079Z,89.97
2023-01-13T18:38:23.579Z,90.17
2023-01-13T18:39:55.261Z,89.39
2023-01-13T18:41:47.723Z,89.45
2023-01-13T18:43:19.394Z,89.86
2023-01-13T18:44:52.511Z,89.96
2023-01-13T18:46:24.161Z,89.79
2023-01-13T18:47:56.735Z,89.85
2023-01-13T18:49:28.407Z,89.45
2023-01-13T18:51:00.086Z,89.81
2023-01-13T18:52:31.724Z,89.96
2023-01-13T18:54:03.687Z,89.82
2023-01-13T18:55:36.969Z,90.22
2023-01-13T18:57:11.292Z,90.29
2023-01-13T18:58:49.844Z,89.73
2023-01-13T19:00:22.195Z,89.25
2023-01-13T19:01:54.004Z,90.21
2023-01-13T19:03:30.116Z,89.61
2023-01-13T19:05:02.693Z,89.55
2023-01-13T19:06:34.403Z,89.39
2023-01-13T19:08:06.264Z,88.54
2023-01-13T19:09:38.084Z,89.26
2023-01-13T19:11:09.725Z,87.99
2023-01-13T19:12:43.717Z,88.39
2023-01-13T19:14:34.245Z,88.62
2023-01-13T19:16:06.343Z,88.53
2023-01-13T19:17:38.037Z,87.97
2023-01-13T19:19:09.689Z,88.46
2023-01-13T19:20:41.357Z,88.71
2023-01-13T19:22:13.820Z,89.18
2023-01-13T19:23:45.560Z,88.82
2023-01-13T19:25:17.336Z,89.34
2023-01-13T19:26:49.062Z,89.80
2023-01-13T19:28:22.075Z,89.62
2023-01-13T19:29:53.880Z,89.46
2023-01-13T19:31:25.544Z,89.34
2023-01-13T19:32:57.270Z,88.94
2023-01-13T19:34:29.003Z,88.83
2023-01-13T19:36:01.113Z,88.90
2023-01-13T19:37:34.168Z,89.11
2023-01-13T19:39:05.910Z,88.68
2023-01-13T19:40:37.501Z,89.39
2023-01-13T19:42:28.633Z,88.75
2023-01-13T19:44:20.176Z,89.17
2023-01-13T19:45:51.793Z,89.19
2023-01-13T19:47:23.427Z,89.56
2023-01-13T19:48:55.056Z,89.18
2023-01-13T19:50:26.760Z,88.44
2023-01-13T19:51:58.460Z,87.53
2023-01-13T19:53:30.156Z,86.94
2023-01-13T19:55:02.080Z,87.34
2023-01-13T19:56:33.710Z,87.03
2023-01-13T19:58:05.320Z,86.92
2023-01-13T19:59:40.926Z,87.43
2023-01-13T20:01:16.121Z,87.74
2023-01-13T20:02:49.443Z,87.61
2023-01-13T20:04:27.120Z,86.50
2023-01-13T20:06:04.617Z,85.73
2023-01-13T20:07:36.304Z,84.68
2023-01-13T20:09:07.895Z,85.18
2023-01-13T20:10:40.486Z,84.27
2023-01-13T20:12:13.604Z,85.03
2023-01-13T20:13:45.282Z,85.67
2023-01-13T20:15:18.268Z,85.27
2023-01-13T20:16:49.926Z,84.95
2023-01-13T20:18:21.486Z,85.65
2023-01-13T20:19:53.216Z,86.54
2023-01-13T20:21:24.800Z,86.25
2023-01-13T20:22:58.067Z,86.38